Aeroporto :
LOGIN :

Iscrizione | Disclaimer

   EN    FR    IT 

 










Sommario :    VFR   VFR Marginale   IFR   IFR Intensivo   IFR Molto Intensivo
Visibilità : 
Base nubi : 
>= 8 km
>= 3000ft
5 / 8 km
1000 / 3000 ft
1500m / 5 km
500 / 1000 ft
800 / 1500m
200 / 500 ft
< 800m
< 200 ft
Simboli :   Temporali  Nebbia  Neve Forte  Precipitazioni Forti  Vento > 20 kt
SIGMETs :   Varie  Temporali  Ghiacco  Turbolenza  Onda orograficha  Ceneri Vulcaniche







- Altitudine del aeroporto : 935 ft


EBFS - Florennes

ULTIMO METAR :
  • 260055Z AUTO 17007KT 9999 FEW012/// OVC055/// 08/07 Q1010 BLU

METARs OBSOLETI :
  • 260025Z AUTO 16009KT 9999 FEW010/// BKN060/// 08/07 Q1010 BLU
  • 260013Z AUTO 16008KT 9999 FEW009/// BKN055/// BKN140/// 08/07 Q1010 BLU
  • 252355Z AUTO 16010KT 9999 FEW009/// SCT011/// BKN130/// 08/07 Q1010 GRN
  • 252354Z AUTO 16009KT 9999 FEW009/// SCT011/// BKN130/// 08/07 Q1010 GRN
  • 252325Z AUTO 17007KT 9999 SCT130/// OVC150/// 08/06 Q1009 BLU
  • 252255Z AUTO 16008KT 9999 FEW009/// BKN160/// 08/07 Q1009 BLU
  • 252254Z AUTO 16008KT 9999 FEW009/// BKN160/// 08/06 Q1009 BLU
  • 252225Z AUTO 17011KT 9999 BKN009/// BKN200/// 08/07 Q1009 GRN

TAF TAF EBFS
Valido dal 25 a 19 ore il 26 a 07 ore UTC


251541Z 2519/2607 20008KT 9999 FEW030 BKN060
TEMPO 2521/2602 5000 -SHRA SCT015 BKN020
TEMPO 2600/2607 3000 BR SCT004 BKN008
Nessun NOTAM noto per questo aeroporto.



MetMap, La meteo Aeronautica in un colpo d'occhio ! - Copyright ORBIFLY Dicembre 2007 - Disclaimer

ORBIFLY MET'MAP TEAM :

Programmazione e sviluppo : Alexandra Zaïnal
Concezione e sviluppo : Baudouin d'Aumeries
Co-Programmazione e sviluppo : Marc-Olivier Méhu
Supporto tecnico e logistico : Manuel Goepfert
Aiuto per la traduzione : Arnaldo La Scala

Contatto : metmap@orbifly.com




FONTI E CREDITI :

   NOAA